createdAt,value
2019-06-20T00:00:41.096Z,0.00
2019-06-20T00:01:41.085Z,0.00
2019-06-20T00:02:41.068Z,0.00
2019-06-20T00:03:41.152Z,0.00
2019-06-20T00:04:41.051Z,0.00
2019-06-20T00:05:41.038Z,0.00
2019-06-20T00:06:41.033Z,0.00
2019-06-20T00:07:41.018Z,0.00
2019-06-20T00:08:41.789Z,0.00
2019-06-20T00:09:40.993Z,0.00
2019-06-20T00:10:40.982Z,0.00
2019-06-20T00:11:41.005Z,0.00
2019-06-20T00:12:40.965Z,0.00
2019-06-20T00:13:40.983Z,0.00
2019-06-20T00:14:40.973Z,0.00
2019-06-20T00:15:40.934Z,0.00
2019-06-20T00:16:40.927Z,0.00
2019-06-20T00:17:40.910Z,0.00
2019-06-20T00:18:40.923Z,0.00
2019-06-20T00:19:40.892Z,0.00
2019-06-20T00:20:40.872Z,0.00
2019-06-20T00:21:40.867Z,0.00
2019-06-20T00:22:40.868Z,0.00
2019-06-20T00:23:40.861Z,0.00
2019-06-20T00:24:40.837Z,0.00
2019-06-20T00:25:40.824Z,0.00
2019-06-20T00:26:40.812Z,0.00
2019-06-20T00:27:40.804Z,0.00
2019-06-20T00:28:40.806Z,0.00
2019-06-20T00:29:40.779Z,0.00
2019-06-20T00:30:40.781Z,0.00
2019-06-20T00:31:40.766Z,0.00
2019-06-20T00:32:40.759Z,0.00
2019-06-20T00:33:40.767Z,0.00
2019-06-20T00:34:40.725Z,0.00
2019-06-20T00:35:40.719Z,0.00
2019-06-20T00:36:40.708Z,0.00
2019-06-20T00:37:40.694Z,0.00
2019-06-20T00:38:40.699Z,0.00
2019-06-20T00:39:40.683Z,0.00
2019-06-20T00:40:40.657Z,0.00
2019-06-20T00:41:40.648Z,0.00
2019-06-20T00:42:40.640Z,0.00
2019-06-20T00:43:40.625Z,0.00
2019-06-20T00:44:40.650Z,0.00
2019-06-20T00:45:40.606Z,0.00
2019-06-20T00:46:40.599Z,0.00
2019-06-20T00:47:40.588Z,0.00
2019-06-20T00:48:40.569Z,0.00
2019-06-20T00:49:40.601Z,0.00
2019-06-20T00:50:40.563Z,0.00
2019-06-20T00:51:40.546Z,0.00
2019-06-20T00:52:40.539Z,0.00
2019-06-20T00:53:40.523Z,0.00
2019-06-20T00:54:40.536Z,0.00
2019-06-20T00:55:40.493Z,0.00
2019-06-20T00:56:40.490Z,0.00
2019-06-20T00:57:40.477Z,0.00
2019-06-20T00:58:40.486Z,0.00
2019-06-20T00:59:40.490Z,0.00
2019-06-20T01:00:40.440Z,0.00
2019-06-20T01:01:40.431Z,0.00
2019-06-20T01:02:40.439Z,0.00
2019-06-20T01:03:40.407Z,0.00
2019-06-20T01:04:40.503Z,0.00
2019-06-20T01:05:40.411Z,0.00
2019-06-20T01:06:40.375Z,0.00
2019-06-20T01:07:40.363Z,0.00
2019-06-20T01:08:40.362Z,0.00
2019-06-20T01:09:40.369Z,0.00
2019-06-20T01:10:40.363Z,0.00
2019-06-20T01:11:40.327Z,0.00
2019-06-20T01:12:40.320Z,0.00
2019-06-20T01:13:40.303Z,0.00
2019-06-20T01:14:40.308Z,0.00
2019-06-20T01:15:40.370Z,0.00
2019-06-20T01:16:40.274Z,0.00
2019-06-20T01:17:40.261Z,0.00
2019-06-20T01:18:40.251Z,0.00
2019-06-20T01:19:40.262Z,0.00
2019-06-20T01:20:40.225Z,0.00
2019-06-20T01:21:40.216Z,0.00
2019-06-20T01:22:40.214Z,0.00
2019-06-20T01:23:40.199Z,0.00
2019-06-20T01:24:40.233Z,0.00
2019-06-20T01:25:40.183Z,0.00
2019-06-20T01:26:40.170Z,0.00
2019-06-20T01:27:40.155Z,0.00
2019-06-20T01:28:40.162Z,0.00
2019-06-20T01:29:40.159Z,0.00
2019-06-20T01:30:40.122Z,0.00
2019-06-20T01:31:40.114Z,0.00
2019-06-20T01:32:40.116Z,0.00
2019-06-20T01:33:40.090Z,0.00
2019-06-20T01:34:40.077Z,0.00
2019-06-20T01:35:40.065Z,0.00
2019-06-20T01:36:40.061Z,0.00
2019-06-20T01:37:40.071Z,0.00
2019-06-20T01:38:40.041Z,0.00
2019-06-20T01:39:40.020Z,0.00
2019-06-20T01:40:40.018Z,0.00
2019-06-20T01:41:40.006Z,0.00
2019-06-20T01:42:40.017Z,0.00
2019-06-20T01:43:49.964Z,0.00
2019-06-20T01:44:40.966Z,0.00
2019-06-20T01:45:39.962Z,0.00
2019-06-20T01:46:39.949Z,0.00
2019-06-20T01:47:39.936Z,0.00
2019-06-20T01:48:39.968Z,0.00
2019-06-20T01:49:39.921Z,0.00
2019-06-20T01:50:39.935Z,0.00
2019-06-20T01:51:39.901Z,0.00
2019-06-20T01:52:39.883Z,0.00
2019-06-20T01:53:39.908Z,0.00
2019-06-20T01:54:39.869Z,0.00
2019-06-20T01:55:39.887Z,0.00
2019-06-20T01:56:39.840Z,0.00
2019-06-20T01:57:39.857Z,0.00
2019-06-20T01:58:39.895Z,0.00
2019-06-20T01:59:39.808Z,0.00
2019-06-20T02:00:39.805Z,0.00
2019-06-20T02:01:39.799Z,0.00
2019-06-20T02:02:39.789Z,0.00
2019-06-20T02:03:39.810Z,0.00
2019-06-20T02:04:39.752Z,0.00
2019-06-20T02:05:39.744Z,0.00
2019-06-20T02:06:39.753Z,0.00
2019-06-20T02:07:39.721Z,0.00
2019-06-20T02:08:39.736Z,0.00
2019-06-20T02:09:39.704Z,0.00
2019-06-20T02:10:39.704Z,0.00
2019-06-20T02:11:39.697Z,0.00
2019-06-20T02:12:39.699Z,0.00
2019-06-20T02:13:39.790Z,0.00
2019-06-20T02:14:39.652Z,0.00
2019-06-20T02:15:39.644Z,0.00
2019-06-20T02:16:39.631Z,0.00
2019-06-20T02:17:39.643Z,0.00
2019-06-20T02:18:39.634Z,0.00
2019-06-20T02:19:39.593Z,0.00
2019-06-20T02:20:39.606Z,0.00
2019-06-20T02:21:39.578Z,0.00
2019-06-20T02:22:39.566Z,0.00
2019-06-20T02:23:39.577Z,0.00
2019-06-20T02:24:39.546Z,0.00
2019-06-20T02:25:39.532Z,0.00
2019-06-20T02:26:39.524Z,0.00
2019-06-20T02:27:39.518Z,0.00
2019-06-20T02:28:39.516Z,0.00
2019-06-20T02:29:39.494Z,0.00
2019-06-20T02:30:39.482Z,0.00
2019-06-20T02:31:39.468Z,0.00
2019-06-20T02:32:39.464Z,0.00
2019-06-20T02:33:39.469Z,0.00
2019-06-20T02:34:39.453Z,0.00
2019-06-20T02:35:39.433Z,0.00
2019-06-20T02:36:39.416Z,4.00
2019-06-20T02:37:39.407Z,4.00
2019-06-20T02:38:39.419Z,4.00
2019-06-20T02:39:39.383Z,4.00
2019-06-20T02:40:39.377Z,4.00
2019-06-20T02:41:39.365Z,4.00
2019-06-20T02:42:39.349Z,4.00
2019-06-20T02:43:39.359Z,0.00
2019-06-20T02:44:39.344Z,4.00
2019-06-20T02:45:39.335Z,4.00
2019-06-20T02:46:39.309Z,4.00
2019-06-20T02:47:39.320Z,4.00
2019-06-20T02:48:39.307Z,4.00
2019-06-20T02:49:39.274Z,8.00
2019-06-20T02:50:39.266Z,8.00
2019-06-20T02:51:39.254Z,8.00
2019-06-20T02:52:39.245Z,12.00
2019-06-20T02:53:39.257Z,12.00
2019-06-20T02:54:39.222Z,16.00
2019-06-20T02:55:39.215Z,20.00
2019-06-20T02:56:39.193Z,24.00
2019-06-20T02:57:39.207Z,24.00
2019-06-20T02:58:39.196Z,28.00
2019-06-20T02:59:39.171Z,28.00
2019-06-20T03:00:39.152Z,32.00
2019-06-20T03:01:39.144Z,40.00
2019-06-20T03:02:39.129Z,44.00
2019-06-20T03:03:39.135Z,48.00
2019-06-20T03:04:39.115Z,56.00
2019-06-20T03:05:39.101Z,60.00
2019-06-20T03:06:39.090Z,68.00
2019-06-20T03:07:39.081Z,72.00
2019-06-20T03:08:39.083Z,80.00
2019-06-20T03:09:39.055Z,84.00
2019-06-20T03:10:39.061Z,92.00
2019-06-20T03:11:39.029Z,100.00
2019-06-20T03:12:39.044Z,108.00
2019-06-20T03:13:39.014Z,116.00
2019-06-20T03:14:45.415Z,124.00
2019-06-20T03:15:39.984Z,136.00
2019-06-20T03:16:38.980Z,140.00
2019-06-20T03:17:38.984Z,148.00
2019-06-20T03:18:38.958Z,156.00
2019-06-20T03:19:38.947Z,164.00
2019-06-20T03:20:38.949Z,172.00
2019-06-20T03:21:38.932Z,176.00
2019-06-20T03:22:38.952Z,188.00
2019-06-20T03:23:38.905Z,188.00
2019-06-20T03:24:38.890Z,196.00
2019-06-20T03:25:38.875Z,208.00
2019-06-20T03:26:38.865Z,224.00
2019-06-20T03:27:38.874Z,232.00
2019-06-20T03:28:38.847Z,240.00
2019-06-20T03:29:38.834Z,252.00
2019-06-20T03:30:38.824Z,268.00
2019-06-20T03:31:38.807Z,284.00
2019-06-20T03:32:38.820Z,304.00
2019-06-20T03:33:38.797Z,324.00
2019-06-20T03:34:38.781Z,344.00
2019-06-20T03:35:38.770Z,356.00
2019-06-20T03:36:38.750Z,368.00
2019-06-20T03:37:38.767Z,384.00
2019-06-20T03:38:38.735Z,392.00
2019-06-20T03:39:38.722Z,408.00
2019-06-20T03:40:38.713Z,408.00
2019-06-20T03:41:38.705Z,420.00
2019-06-20T03:42:38.715Z,444.00
2019-06-20T03:43:38.704Z,472.00
2019-06-20T03:44:38.670Z,496.00
2019-06-20T03:45:38.653Z,528.00
2019-06-20T03:46:38.647Z,556.00
2019-06-20T03:47:38.661Z,584.00
2019-06-20T03:48:38.618Z,612.00
2019-06-20T03:49:38.609Z,644.00
2019-06-20T03:50:38.599Z,660.00
2019-06-20T03:51:38.584Z,676.00
2019-06-20T03:52:38.600Z,680.00
2019-06-20T03:53:38.570Z,688.00
2019-06-20T03:54:38.560Z,700.00
2019-06-20T03:55:38.554Z,700.00
2019-06-20T03:56:38.538Z,708.00
2019-06-20T03:57:38.541Z,740.00
2019-06-20T03:58:38.531Z,780.00
2019-06-20T03:59:38.499Z,816.00
2019-06-20T04:00:38.500Z,872.00
2019-06-20T04:01:38.479Z,932.00
2019-06-20T04:02:38.485Z,980.00
2019-06-20T04:03:38.453Z,1036.00
2019-06-20T04:04:38.458Z,1100.00
2019-06-20T04:05:38.450Z,1152.00
2019-06-20T04:06:38.488Z,1196.00
2019-06-20T04:07:38.577Z,1176.00
2019-06-20T04:08:38.398Z,1172.00
2019-06-20T04:09:38.420Z,1204.00
2019-06-20T04:10:38.382Z,1232.00
2019-06-20T04:11:38.363Z,1276.00
2019-06-20T04:12:38.362Z,1320.00
2019-06-20T04:13:38.369Z,1344.00
2019-06-20T04:14:38.337Z,1404.00
2019-06-20T04:15:38.330Z,1572.00
2019-06-20T04:16:38.312Z,1760.00
2019-06-20T04:17:38.300Z,1860.00
2019-06-20T04:18:38.311Z,1864.00
2019-06-20T04:19:38.294Z,1744.00
2019-06-20T04:20:38.267Z,1580.00
2019-06-20T04:21:38.259Z,1540.00
2019-06-20T04:22:38.266Z,1632.00
2019-06-20T04:23:38.252Z,1584.00
2019-06-20T04:24:38.271Z,1520.00
2019-06-20T04:25:38.215Z,1764.00
2019-06-20T04:26:38.203Z,1792.00
2019-06-20T04:27:38.194Z,1668.00
2019-06-20T04:28:38.198Z,1424.00
2019-06-20T04:29:38.167Z,1160.00
2019-06-20T04:30:38.157Z,1284.00
2019-06-20T04:31:38.141Z,1380.00
2019-06-20T04:32:38.151Z,1380.00
2019-06-20T04:33:38.168Z,1420.00
2019-06-20T04:34:38.112Z,1588.00
2019-06-20T04:35:38.099Z,1688.00
2019-06-20T04:36:38.095Z,1764.00
2019-06-20T04:37:38.080Z,1784.00
2019-06-20T04:38:38.092Z,1776.00
2019-06-20T04:39:38.061Z,1788.00
2019-06-20T04:40:38.045Z,1844.00
2019-06-20T04:41:38.034Z,1892.00
2019-06-20T04:42:38.039Z,1736.00
2019-06-20T04:43:38.036Z,1876.00
2019-06-20T04:44:38.005Z,2060.00
2019-06-20T04:45:37.997Z,2056.00
2019-06-20T04:46:37.982Z,2144.00
2019-06-20T04:47:37.974Z,2144.00
2019-06-20T04:48:37.975Z,1924.00
2019-06-20T04:49:37.973Z,1860.00
2019-06-20T04:50:37.939Z,2116.00
2019-06-20T04:51:37.931Z,2364.00
2019-06-20T04:52:37.916Z,2608.00
2019-06-20T04:53:37.936Z,3024.00
2019-06-20T04:54:37.894Z,3608.00
2019-06-20T04:55:37.900Z,4016.00
2019-06-20T04:56:37.876Z,4256.00
2019-06-20T04:57:37.864Z,4392.00
2019-06-20T04:58:38.071Z,4460.00
2019-06-20T04:59:37.849Z,4676.00
2019-06-20T05:00:37.829Z,4596.00
2019-06-20T05:01:37.818Z,4200.00
2019-06-20T05:02:37.810Z,4080.00
2019-06-20T05:03:37.838Z,4264.00
2019-06-20T05:04:37.789Z,4580.00
2019-06-20T05:05:37.787Z,4836.00
2019-06-20T05:06:37.759Z,5264.00
2019-06-20T05:07:37.745Z,6040.00
2019-06-20T05:08:37.873Z,6252.00
2019-06-20T05:09:37.728Z,6384.00
2019-06-20T05:10:37.718Z,6696.00
2019-06-20T05:11:37.710Z,7164.00
2019-06-20T05:12:37.695Z,8272.00
2019-06-20T05:13:37.683Z,9504.00
2019-06-20T05:14:37.690Z,10576.00
2019-06-20T05:15:51.363Z,11356.00
2019-06-20T05:16:38.654Z,12640.00
2019-06-20T05:17:37.641Z,12420.00
2019-06-20T05:18:37.650Z,11852.00
2019-06-20T05:19:37.732Z,10588.00
2019-06-20T05:20:37.605Z,9520.00
2019-06-20T05:21:37.596Z,8932.00
2019-06-20T05:22:37.590Z,8456.00
2019-06-20T05:23:37.593Z,8236.00
2019-06-20T05:24:37.584Z,8692.00
2019-06-20T05:25:37.553Z,8060.00
2019-06-20T05:26:37.541Z,7844.00
2019-06-20T05:27:37.534Z,7804.00
2019-06-20T05:28:37.540Z,7496.00
2019-06-20T05:29:37.690Z,7136.00
2019-06-20T05:30:37.503Z,6448.00
2019-06-20T05:31:37.500Z,5536.00
2019-06-20T05:32:37.472Z,4940.00
2019-06-20T05:33:37.465Z,4712.00
2019-06-20T05:34:37.624Z,4700.00
2019-06-20T05:35:37.882Z,4872.00
2019-06-20T05:36:37.448Z,5052.00
2019-06-20T05:37:37.424Z,5232.00
2019-06-20T05:38:37.411Z,5448.00
2019-06-20T05:39:37.587Z,5848.00
2019-06-20T05:40:37.429Z,6160.00
2019-06-20T05:41:37.427Z,6184.00
2019-06-20T05:42:37.368Z,5740.00
2019-06-20T05:43:37.359Z,5004.00
2019-06-20T05:44:37.360Z,4504.00
2019-06-20T05:45:37.334Z,4408.00
2019-06-20T05:46:37.334Z,4720.00
2019-06-20T05:47:37.309Z,5204.00
2019-06-20T05:48:37.316Z,5712.00
2019-06-20T05:49:37.309Z,6112.00
2019-06-20T05:50:37.335Z,6276.00
2019-06-20T05:51:39.699Z,6180.00
2019-06-20T05:52:37.259Z,6072.00
2019-06-20T05:53:37.331Z,6132.00
2019-06-20T05:54:37.257Z,6268.00
2019-06-20T05:55:37.231Z,6344.00
2019-06-20T05:56:37.209Z,6476.00
2019-06-20T05:57:37.200Z,6752.00
2019-06-20T05:58:37.191Z,6900.00
2019-06-20T05:59:37.195Z,7252.00
2019-06-20T06:00:37.172Z,7888.00
2019-06-20T06:01:37.159Z,8664.00
2019-06-20T06:02:37.386Z,9328.00
2019-06-20T06:03:37.140Z,10552.00
2019-06-20T06:04:37.157Z,10672.00
2019-06-20T06:05:37.275Z,10264.00
2019-06-20T06:06:37.165Z,10064.00
2019-06-20T06:07:37.087Z,9956.00
2019-06-20T06:08:37.103Z,10240.00
2019-06-20T06:09:37.075Z,10724.00
2019-06-20T06:10:37.077Z,10692.00
2019-06-20T06:11:37.057Z,10940.00
2019-06-20T06:12:37.068Z,11552.00
2019-06-20T06:13:37.029Z,11888.00
2019-06-20T06:14:37.043Z,12780.00
2019-06-20T06:15:37.027Z,13356.00
2019-06-20T06:16:36.993Z,13852.00
2019-06-20T06:17:36.982Z,14412.00
2019-06-20T06:18:36.976Z,14856.00
2019-06-20T06:19:36.958Z,15300.00
2019-06-20T06:20:36.973Z,16324.00
2019-06-20T06:21:36.943Z,17824.00
2019-06-20T06:22:36.934Z,17536.00
2019-06-20T06:23:36.927Z,15688.00
2019-06-20T06:24:36.905Z,15064.00
2019-06-20T06:25:36.915Z,15568.00
2019-06-20T06:26:36.894Z,16244.00
2019-06-20T06:27:36.887Z,17312.00
2019-06-20T06:28:36.857Z,15860.00
2019-06-20T06:29:36.848Z,14504.00
2019-06-20T06:30:36.857Z,13856.00
2019-06-20T06:31:36.824Z,13528.00
2019-06-20T06:32:40.516Z,13620.00
2019-06-20T06:33:36.809Z,13340.00
2019-06-20T06:34:36.796Z,12512.00
2019-06-20T06:35:36.807Z,12524.00
2019-06-20T06:36:36.767Z,13544.00
2019-06-20T06:37:36.776Z,14068.00
2019-06-20T06:38:36.751Z,13260.00
2019-06-20T06:39:36.742Z,11796.00
2019-06-20T06:40:36.766Z,11544.00
2019-06-20T06:41:36.793Z,12076.00
2019-06-20T06:42:36.706Z,12872.00
2019-06-20T06:43:41.754Z,13896.00
2019-06-20T06:44:37.687Z,14880.00
2019-06-20T06:45:36.710Z,15480.00
2019-06-20T06:46:44.922Z,17056.00
2019-06-20T06:47:37.671Z,17536.00
2019-06-20T06:48:36.644Z,17536.00
2019-06-20T06:49:36.635Z,16608.00
2019-06-20T06:50:36.655Z,16080.00
2019-06-20T06:51:38.289Z,16640.00
2019-06-20T06:52:36.602Z,17408.00
2019-06-20T06:53:36.588Z,18720.00
2019-06-20T06:54:36.577Z,19264.00
2019-06-20T06:55:36.593Z,21024.00
2019-06-20T06:56:36.559Z,21760.00
2019-06-20T06:57:36.543Z,21344.00
2019-06-20T06:58:36.546Z,15868.00
2019-06-20T06:59:36.526Z,15568.00
2019-06-20T07:00:37.868Z,17344.00
2019-06-20T07:01:36.499Z,19264.00
2019-06-20T07:02:36.500Z,21952.00
2019-06-20T07:03:36.485Z,23968.00
2019-06-20T07:04:36.472Z,22528.00
2019-06-20T07:05:36.483Z,20864.00
2019-06-20T07:06:36.451Z,20608.00
2019-06-20T07:07:36.440Z,21024.00
2019-06-20T07:08:36.422Z,21184.00
2019-06-20T07:09:36.414Z,21504.00
2019-06-20T07:10:36.405Z,22496.00
2019-06-20T07:11:36.410Z,23136.00
2019-06-20T07:12:36.394Z,21888.00
2019-06-20T07:13:36.428Z,20352.00
2019-06-20T07:14:36.364Z,19776.00
2019-06-20T07:15:36.566Z,19936.00
2019-06-20T07:16:36.378Z,21248.00
2019-06-20T07:17:36.334Z,23072.00
2019-06-20T07:18:36.326Z,25152.00
2019-06-20T07:19:36.337Z,26496.00
2019-06-20T07:20:36.319Z,26048.00
2019-06-20T07:21:36.300Z,25568.00
2019-06-20T07:22:36.277Z,24032.00
2019-06-20T07:23:36.270Z,23456.00
2019-06-20T07:24:36.267Z,23584.00
2019-06-20T07:25:36.251Z,24544.00
2019-06-20T07:26:36.277Z,24672.00
2019-06-20T07:27:36.228Z,24128.00
2019-06-20T07:28:36.212Z,23008.00
2019-06-20T07:29:36.200Z,22176.00
2019-06-20T07:30:36.197Z,21600.00
2019-06-20T07:31:36.206Z,20800.00
2019-06-20T07:32:36.164Z,22400.00
2019-06-20T07:33:36.154Z,24480.00
2019-06-20T07:34:36.147Z,22112.00
2019-06-20T07:35:36.134Z,25024.00
2019-06-20T07:36:36.181Z,24480.00
2019-06-20T07:37:36.117Z,22112.00
2019-06-20T07:38:36.107Z,23392.00
2019-06-20T07:39:36.096Z,23424.00
2019-06-20T07:40:36.090Z,21760.00
2019-06-20T07:41:36.096Z,20128.00
2019-06-20T07:42:36.080Z,21408.00
2019-06-20T07:43:36.048Z,16820.00
2019-06-20T07:44:36.041Z,16688.00
2019-06-20T07:45:36.033Z,16952.00
2019-06-20T07:46:36.104Z,17728.00
2019-06-20T07:47:36.130Z,19648.00
2019-06-20T07:48:36.056Z,20928.00
2019-06-20T07:49:36.063Z,37760.00
2019-06-20T07:50:39.270Z,75776.00
2019-06-20T07:51:36.013Z,27040.00
2019-06-20T07:52:36.046Z,27584.00
2019-06-20T07:53:35.963Z,22400.00
2019-06-20T07:54:35.926Z,22848.00
2019-06-20T07:55:35.923Z,26272.00
2019-06-20T07:56:35.911Z,25184.00
2019-06-20T07:57:35.930Z,30272.00
2019-06-20T07:58:36.051Z,27616.00
2019-06-20T07:59:35.917Z,38624.00
2019-06-20T08:00:35.899Z,28032.00
2019-06-20T08:01:35.858Z,21920.00
2019-06-20T08:02:36.228Z,22944.00
2019-06-20T08:03:35.863Z,26048.00
2019-06-20T08:04:35.836Z,28544.00
2019-06-20T08:05:35.812Z,28832.00
2019-06-20T08:06:35.804Z,38976.00
2019-06-20T08:07:35.817Z,34112.00
2019-06-20T08:08:35.827Z,26784.00
2019-06-20T08:09:44.670Z,26016.00
2019-06-20T08:10:36.805Z,28960.00
2019-06-20T08:11:35.765Z,27584.00
2019-06-20T08:12:35.774Z,29280.00
2019-06-20T08:13:35.729Z,29792.00
2019-06-20T08:14:35.723Z,29152.00
2019-06-20T08:15:35.713Z,27968.00
2019-06-20T08:16:35.734Z,38272.00
2019-06-20T08:17:35.903Z,26272.00
2019-06-20T08:18:35.673Z,28960.00
2019-06-20T08:19:35.664Z,27488.00
2019-06-20T08:20:35.667Z,31616.00
2019-06-20T08:21:35.651Z,32576.00
2019-06-20T08:22:35.686Z,57248.00
2019-06-20T08:23:35.625Z,38688.00
2019-06-20T08:24:35.615Z,49984.00
2019-06-20T08:25:35.598Z,41216.00
2019-06-20T08:26:35.601Z,126592.00
2019-06-20T08:27:35.610Z,76320.00
2019-06-20T08:28:35.620Z,47744.00
2019-06-20T08:29:35.568Z,65696.00
2019-06-20T08:30:35.553Z,27392.00
2019-06-20T08:31:35.554Z,36544.00
2019-06-20T08:32:35.529Z,20128.00
2019-06-20T08:33:35.530Z,23296.00
2019-06-20T08:34:35.512Z,19680.00
2019-06-20T08:35:35.503Z,31616.00
2019-06-20T08:36:35.485Z,98816.00
2019-06-20T08:37:35.474Z,115936.00
2019-06-20T08:38:35.484Z,114816.00
2019-06-20T08:39:35.456Z,80608.00
2019-06-20T08:40:35.457Z,19232.00
2019-06-20T08:41:35.476Z,18528.00
2019-06-20T08:42:35.427Z,16300.00
2019-06-20T08:43:35.439Z,71680.00
2019-06-20T08:44:35.437Z,18752.00
2019-06-20T08:45:35.418Z,18496.00
2019-06-20T08:46:35.388Z,18880.00
2019-06-20T08:47:35.377Z,18368.00
2019-06-20T08:48:35.393Z,27232.00
2019-06-20T08:49:35.369Z,38816.00
2019-06-20T08:50:35.345Z,37280.00
2019-06-20T08:51:35.346Z,51808.00
2019-06-20T08:52:35.341Z,71488.00
2019-06-20T08:53:35.358Z,62912.00
2019-06-20T08:54:35.334Z,96256.00
2019-06-20T08:55:35.330Z,111104.00
2019-06-20T08:56:35.286Z,71456.00
2019-06-20T08:57:35.272Z,121088.00
2019-06-20T08:58:35.294Z,122112.00
2019-06-20T08:59:35.255Z,36320.00
2019-06-20T09:00:35.250Z,54976.00
2019-06-20T09:01:35.253Z,55200.00
2019-06-20T09:02:35.246Z,51072.00
2019-06-20T09:03:35.323Z,56704.00
2019-06-20T09:04:35.209Z,66880.00
2019-06-20T09:05:35.199Z,81024.00
2019-06-20T09:06:35.196Z,108800.00
2019-06-20T09:07:35.185Z,109536.00
2019-06-20T09:08:35.209Z,107840.00
2019-06-20T09:09:35.436Z,86720.00
2019-06-20T09:10:35.237Z,93920.00
2019-06-20T09:11:35.145Z,77024.00
2019-06-20T09:12:35.191Z,87968.00
2019-06-20T09:13:35.180Z,72928.00
2019-06-20T09:14:35.174Z,90688.00
2019-06-20T09:15:35.125Z,91392.00
2019-06-20T09:16:35.121Z,85568.00
2019-06-20T09:17:35.125Z,36768.00
2019-06-20T09:18:35.107Z,90368.00
2019-06-20T09:19:35.113Z,99904.00
2019-06-20T09:20:35.093Z,104032.00
2019-06-20T09:21:35.064Z,104864.00
2019-06-20T09:22:35.042Z,99136.00
2019-06-20T09:23:35.758Z,99232.00
2019-06-20T09:24:35.141Z,101920.00
2019-06-20T09:25:35.053Z,102528.00
2019-06-20T09:26:35.023Z,101280.00
2019-06-20T09:27:35.050Z,96736.00
2019-06-20T09:28:35.022Z,99008.00
2019-06-20T09:29:41.751Z,100640.00
2019-06-20T09:30:36.066Z,100544.00
2019-06-20T09:31:34.984Z,102080.00
2019-06-20T09:32:34.964Z,84544.00
2019-06-20T09:33:34.958Z,103552.00
2019-06-20T09:34:34.953Z,100160.00
2019-06-20T09:35:35.009Z,95936.00
2019-06-20T09:36:34.942Z,15944.00
2019-06-20T09:37:34.914Z,104960.00
2019-06-20T09:38:34.925Z,102336.00
2019-06-20T09:39:34.921Z,101344.00
2019-06-20T09:40:34.898Z,103008.00
2019-06-20T09:41:34.920Z,102400.00
2019-06-20T09:42:36.863Z,99424.00
2019-06-20T09:43:34.902Z,98816.00
2019-06-20T09:44:34.863Z,82336.00
2019-06-20T09:45:34.862Z,43552.00
2019-06-20T09:46:34.850Z,17696.00
2019-06-20T09:47:34.864Z,74016.00
2019-06-20T09:48:34.852Z,41760.00
2019-06-20T09:49:34.825Z,51392.00
2019-06-20T09:50:34.814Z,55328.00
2019-06-20T09:51:34.800Z,39552.00
2019-06-20T09:52:34.817Z,19232.00
2019-06-20T09:53:34.817Z,16704.00
2019-06-20T09:54:34.798Z,21408.00
2019-06-20T09:55:34.774Z,88448.00
2019-06-20T09:56:34.782Z,84128.00
2019-06-20T09:57:34.760Z,72480.00
2019-06-20T09:58:34.763Z,33248.00
2019-06-20T09:59:34.738Z,21728.00
2019-06-20T10:00:34.719Z,20416.00
2019-06-20T10:01:34.712Z,51648.00
2019-06-20T10:02:34.724Z,82144.00
2019-06-20T10:03:34.728Z,72512.00
2019-06-20T10:04:34.699Z,92288.00
2019-06-20T10:05:34.690Z,30656.00
2019-06-20T10:06:34.677Z,19264.00
2019-06-20T10:07:34.739Z,17120.00
2019-06-20T10:08:34.666Z,15016.00
2019-06-20T10:09:34.660Z,14140.00
2019-06-20T10:10:34.687Z,17568.00
2019-06-20T10:11:34.672Z,21632.00
2019-06-20T10:12:34.611Z,21760.00
2019-06-20T10:13:34.597Z,24256.00
2019-06-20T10:14:34.591Z,23872.00
2019-06-20T10:15:34.575Z,20512.00
2019-06-20T10:16:45.356Z,18176.00
2019-06-20T10:17:35.580Z,14552.00
2019-06-20T10:18:34.574Z,12932.00
2019-06-20T10:19:34.542Z,12964.00
2019-06-20T10:20:34.594Z,11648.00
2019-06-20T10:21:34.540Z,10368.00
2019-06-20T10:22:34.504Z,9560.00
2019-06-20T10:23:34.520Z,9576.00
2019-06-20T10:24:34.487Z,10752.00
2019-06-20T10:25:34.480Z,25248.00
2019-06-20T10:26:37.559Z,26176.00
2019-06-20T10:27:34.458Z,19872.00
2019-06-20T10:28:34.446Z,18304.00
2019-06-20T10:29:34.488Z,15740.00
2019-06-20T10:30:34.427Z,12892.00
2019-06-20T10:31:34.416Z,11472.00
2019-06-20T10:32:34.401Z,11844.00
2019-06-20T10:33:34.411Z,18432.00
2019-06-20T10:34:34.382Z,16576.00
2019-06-20T10:35:34.381Z,17888.00
2019-06-20T10:36:34.383Z,16960.00
2019-06-20T10:37:34.359Z,15076.00
2019-06-20T10:38:34.367Z,12784.00
2019-06-20T10:39:34.364Z,11692.00
2019-06-20T10:40:34.321Z,11944.00
2019-06-20T10:41:34.305Z,12860.00
2019-06-20T10:42:34.304Z,13376.00
2019-06-20T10:43:34.293Z,14560.00
2019-06-20T10:44:34.308Z,15100.00
2019-06-20T10:45:34.271Z,13820.00
2019-06-20T10:46:34.253Z,13420.00
2019-06-20T10:47:36.169Z,14944.00
2019-06-20T10:48:34.237Z,15712.00
2019-06-20T10:49:34.244Z,17728.00
2019-06-20T10:50:34.219Z,16128.00
2019-06-20T10:51:34.207Z,14304.00
2019-06-20T10:52:34.199Z,15476.00
2019-06-20T10:53:34.198Z,15616.00
2019-06-20T10:54:34.189Z,16288.00
2019-06-20T10:55:34.159Z,18880.00
2019-06-20T10:56:34.153Z,20864.00
2019-06-20T10:57:34.168Z,22144.00
2019-06-20T10:58:34.153Z,19968.00
2019-06-20T10:59:34.117Z,19552.00
2019-06-20T11:00:34.114Z,18720.00
2019-06-20T11:01:34.100Z,17440.00
2019-06-20T11:02:34.093Z,18080.00
2019-06-20T11:03:34.083Z,19168.00
2019-06-20T11:04:34.082Z,19488.00
2019-06-20T11:05:34.054Z,19072.00
2019-06-20T11:06:34.040Z,18432.00
2019-06-20T11:07:34.054Z,18080.00
2019-06-20T11:08:34.024Z,16928.00
2019-06-20T11:09:34.022Z,17344.00
2019-06-20T11:10:34.053Z,19008.00
2019-06-20T11:11:33.994Z,20480.00
2019-06-20T11:12:42.897Z,19584.00
2019-06-20T11:13:34.964Z,18720.00
2019-06-20T11:14:33.980Z,16768.00
2019-06-20T11:15:33.982Z,15512.00
2019-06-20T11:16:33.939Z,13752.00
2019-06-20T11:17:33.958Z,12496.00
2019-06-20T11:18:33.923Z,12480.00
2019-06-20T11:19:33.909Z,13428.00
2019-06-20T11:20:33.919Z,13916.00
2019-06-20T11:21:33.891Z,13612.00
2019-06-20T11:22:33.889Z,13336.00
2019-06-20T11:23:33.870Z,13056.00
2019-06-20T11:24:33.857Z,12732.00
2019-06-20T11:25:33.866Z,12700.00
2019-06-20T11:26:33.850Z,13240.00
2019-06-20T11:27:33.822Z,13800.00
2019-06-20T11:28:33.816Z,14624.00
2019-06-20T11:29:33.806Z,14596.00
2019-06-20T11:30:47.967Z,15128.00
2019-06-20T11:31:34.778Z,15708.00
2019-06-20T11:32:33.771Z,15996.00
2019-06-20T11:33:36.488Z,14888.00
2019-06-20T11:34:33.757Z,13504.00
2019-06-20T11:35:35.979Z,13516.00
2019-06-20T11:36:33.740Z,13716.00
2019-06-20T11:37:35.038Z,13416.00
2019-06-20T11:38:33.701Z,12888.00
2019-06-20T11:39:34.701Z,12648.00
2019-06-20T11:40:33.717Z,11920.00
2019-06-20T11:41:34.964Z,11188.00
2019-06-20T11:42:34.690Z,10632.00
2019-06-20T11:43:34.749Z,9708.00
2019-06-20T11:44:35.305Z,8568.00
2019-06-20T11:45:35.488Z,7576.00
2019-06-20T11:46:35.362Z,6884.00
2019-06-20T11:47:34.977Z,6072.00
2019-06-20T11:48:34.322Z,5408.00
2019-06-20T11:49:34.710Z,4924.00
2019-06-20T11:50:34.915Z,4576.00
2019-06-20T11:51:34.889Z,4456.00
2019-06-20T11:52:40.052Z,4444.00
2019-06-20T11:53:35.309Z,4392.00
2019-06-20T11:54:34.450Z,4492.00
2019-06-20T11:55:33.531Z,4588.00
2019-06-20T11:56:33.528Z,4724.00
2019-06-20T11:57:33.508Z,5412.00
2019-06-20T11:58:33.488Z,6376.00
2019-06-20T11:59:33.477Z,7496.00
2019-06-20T12:00:33.475Z,8408.00
2019-06-20T12:01:33.478Z,9436.00
2019-06-20T12:02:33.449Z,10548.00
2019-06-20T12:03:33.468Z,11560.00
2019-06-20T12:04:33.433Z,12488.00
2019-06-20T12:05:33.421Z,13184.00
2019-06-20T12:06:33.432Z,13768.00
2019-06-20T12:07:33.464Z,14280.00
2019-06-20T12:08:33.410Z,14772.00
2019-06-20T12:09:36.377Z,15000.00
2019-06-20T12:10:33.365Z,15044.00
2019-06-20T12:11:33.351Z,15152.00
2019-06-20T12:12:33.346Z,15024.00